Time;durP1;ratioP1;P1;durP2;ratioP2;P2;SDS_P1;SDS_P2;PMS_P1;PMS_P2;Temp;Humidity;BMP_temperature;BMP_pressure;BME280_temperature;BME280_humidity;BME280_pressure;Samples;Min_cycle;Max_cycle;Signal;HPM_P1;HPM_P2
2022/07/21 00:01:50;;;;;;;18.52;14.02;;;;;;;19.53;100.00;101421.31;5031869;28;20457;-73
2022/07/21 00:04:16;;;;;;;20.20;13.15;;;;;;;19.43;100.00;101420.56;5035224;28;20507;-73
2022/07/21 00:06:42;;;;;;;20.52;14.45;;;;;;;19.38;100.00;101418.31;5049055;28;20036;-73
2022/07/21 00:09:09;;;;;;;19.15;14.07;;;;;;;19.29;100.00;101417.38;5041165;28;20037;-73
2022/07/21 00:11:34;;;;;;;24.75;14.20;;;;;;;19.34;100.00;101422.44;5015791;28;20099;-73
2022/07/21 00:14:00;;;;;;;22.10;14.35;;;;;;;19.24;100.00;101421.69;5005952;28;20037;-73
2022/07/21 00:16:26;;;;;;;23.27;14.27;;;;;;;19.20;100.00;101425.81;5048472;28;20151;-73
2022/07/21 00:18:51;;;;;;;20.35;14.48;;;;;;;19.15;100.00;101429.09;5044083;28;20036;-74
2022/07/21 00:21:17;;;;;;;17.88;14.38;;;;;;;19.10;100.00;101425.91;5029464;28;20450;-73
2022/07/21 00:23:42;;;;;;;21.63;13.85;;;;;;;19.08;100.00;101420.53;5036745;28;20037;-74
2022/07/21 00:26:08;;;;;;;20.15;14.95;;;;;;;19.07;100.00;101421.59;5036520;28;20120;-74
2022/07/21 00:28:33;;;;;;;23.88;14.00;;;;;;;19.04;100.00;101418.28;5046219;28;20038;-74
2022/07/21 00:30:59;;;;;;;22.35;14.52;;;;;;;18.93;100.00;101419.41;5043929;28;20052;-73
2022/07/21 00:33:25;;;;;;;23.80;15.02;;;;;;;18.96;100.00;101423.78;5032826;28;20370;-74
2022/07/21 00:35:50;;;;;;;20.80;14.93;;;;;;;18.96;100.00;101421.00;5023456;28;20466;-74
2022/07/21 00:38:16;;;;;;;23.75;15.55;;;;;;;18.93;100.00;101419.41;5034560;28;20036;-74
2022/07/21 00:40:41;;;;;;;24.00;15.68;;;;;;;18.87;100.00;101417.28;5036795;28;20041;-74
2022/07/21 00:43:07;;;;;;;23.65;16.02;;;;;;;18.94;100.00;101420.25;5042202;28;20029;-73
2022/07/21 00:45:32;;;;;;;21.67;14.90;;;;;;;18.99;100.00;101426.19;5036193;28;20146;-74
2022/07/21 00:47:58;;;;;;;20.83;14.68;;;;;;;18.91;100.00;101413.16;5014864;28;20077;-74
2022/07/21 00:50:23;;;;;;;21.20;15.00;;;;;;;18.84;100.00;101418.47;5031252;28;20155;-73
2022/07/21 00:52:49;;;;;;;19.77;14.27;;;;;;;18.91;100.00;101410.38;5032509;28;20041;-73
2022/07/21 00:55:20;;;;;;;22.35;14.35;;;;;;;18.88;100.00;101410.69;5040672;28;20110;-73
2022/07/21 00:57:46;;;;;;;25.35;15.07;;;;;;;18.79;100.00;101404.19;5044098;28;20040;-74
2022/07/21 01:00:22;;;;;;;23.15;16.23;;;;;;;18.97;100.00;101403.28;5025686;28;20040;-73
2022/07/21 01:02:48;;;;;;;22.42;15.25;;;;;;;18.84;100.00;101414.81;5035081;28;20033;-73
2022/07/21 01:05:15;;;;;;;25.55;15.23;;;;;;;18.87;100.00;101409.84;5025985;28;20052;-73
2022/07/21 01:07:42;;;;;;;23.65;15.57;;;;;;;18.85;100.00;101406.34;5041884;28;20040;-73
2022/07/21 01:10:10;;;;;;;24.73;15.95;;;;;;;18.78;100.00;101407.13;5038885;28;20124;-73
2022/07/21 01:12:36;;;;;;;21.98;14.85;;;;;;;18.79;100.00;101404.19;5035736;28;20038;-73
2022/07/21 01:15:03;;;;;;;24.60;15.93;;;;;;;18.80;100.00;101405.91;5041493;28;20068;-73
2022/07/21 01:17:28;;;;;;;24.45;16.13;;;;;;;18.83;100.00;101408.41;5047651;28;20126;-73
2022/07/21 01:19:54;;;;;;;25.98;16.40;;;;;;;18.72;100.00;101403.09;5039769;28;20167;-72
2022/07/21 01:22:20;;;;;;;20.98;15.23;;;;;;;18.76;100.00;101409.16;5030848;28;20037;-73
2022/07/21 01:24:46;;;;;;;25.83;16.77;;;;;;;18.68;100.00;101410.00;5026679;28;20068;-73
2022/07/21 01:27:11;;;;;;;25.95;17.17;;;;;;;18.72;100.00;101416.94;5035587;28;20037;-72
2022/07/21 01:29:37;;;;;;;30.80;18.02;;;;;;;18.75;100.00;101413.84;5043538;28;20048;-72
2022/07/21 01:32:03;;;;;;;28.50;18.00;;;;;;;18.65;100.00;101399.22;5034534;28;20498;-73
2022/07/21 01:34:29;;;;;;;27.50;18.10;;;;;;;18.64;100.00;101405.78;5039707;28;20090;-72
2022/07/21 01:36:54;;;;;;;28.52;18.00;;;;;;;18.67;100.00;101402.69;5048002;28;20033;-72
2022/07/21 01:42:04;;;;;;;25.80;17.75;;;;;;;18.59;100.00;101394.31;5051249;28;20029;-73
2022/07/21 01:44:30;;;;;;;27.95;18.98;;;;;;;18.61;100.00;101389.47;5046762;28;20033;-73
2022/07/21 01:46:55;;;;;;;33.83;19.00;;;;;;;18.57;100.00;101385.28;5045683;28;20021;-73
2022/07/21 01:49:21;;;;;;;31.00;18.30;;;;;;;18.66;100.00;101385.19;5036231;28;20037;-73
2022/07/21 01:51:48;;;;;;;28.25;17.95;;;;;;;18.63;100.00;101381.88;5051800;28;20036;-73
2022/07/21 01:54:13;;;;;;;27.77;18.42;;;;;;;18.58;100.00;101387.00;5045420;28;20041;-73
2022/07/21 01:56:39;;;;;;;29.08;19.15;;;;;;;18.51;100.00;101386.78;5038920;28;20033;-73
2022/07/21 01:59:06;;;;;;;29.05;19.70;;;;;;;18.62;100.00;101382.91;5033772;28;20527;-73
2022/07/21 02:01:32;;;;;;;27.25;18.08;;;;;;;18.52;100.00;101380.22;5048368;28;20029;-73
2022/07/21 02:04:00;;;;;;;31.27;20.75;;;;;;;18.46;100.00;101384.53;5042773;28;20128;-74
2022/07/21 02:06:27;;;;;;;29.83;19.95;;;;;;;18.48;100.00;101381.56;5028133;28;20037;-73
2022/07/21 02:08:52;;;;;;;30.48;19.90;;;;;;;18.52;100.00;101386.63;5044182;28;20059;-73
2022/07/21 02:11:18;;;;;;;30.35;20.27;;;;;;;18.58;100.00;101385.13;5033197;28;20096;-73
2022/07/21 02:13:44;;;;;;;33.33;20.20;;;;;;;18.60;100.00;101387.75;5036837;28;20037;-73
2022/07/21 02:16:10;;;;;;;32.15;18.98;;;;;;;18.62;100.00;101400.41;5042514;28;20485;-73
2022/07/21 02:18:36;;;;;;;32.85;21.58;;;;;;;18.59;100.00;101400.72;5040950;28;20029;-73
2022/07/21 02:21:02;;;;;;;33.58;20.25;;;;;;;18.72;100.00;101400.31;5045918;28;20436;-73
2022/07/21 02:23:29;;;;;;;29.92;19.85;;;;;;;18.71;100.00;101398.59;5020578;28;20041;-73
2022/07/21 02:25:55;;;;;;;33.47;21.45;;;;;;;18.71;100.00;101393.91;5033020;28;20025;-73
2022/07/21 02:28:21;;;;;;;35.00;21.92;;;;;;;18.71;100.00;101395.81;5019198;28;20030;-73
2022/07/21 02:30:48;;;;;;;38.65;21.48;;;;;;;18.67;100.00;101388.81;5035229;28;20108;-73
2022/07/21 02:33:13;;;;;;;30.70;21.45;;;;;;;18.78;100.00;101396.03;5048933;28;20033;-73
2022/07/21 02:35:39;;;;;;;33.83;20.70;;;;;;;18.71;100.00;101393.03;5035287;28;20099;-73
2022/07/21 02:38:05;;;;;;;34.38;22.05;;;;;;;18.70;100.00;101397.69;5037055;28;20052;-73
2022/07/21 02:40:31;;;;;;;33.13;22.48;;;;;;;18.72;100.00;101401.16;5039602;28;20048;-73
2022/07/21 02:42:57;;;;;;;32.08;21.27;;;;;;;18.83;100.00;101397.31;5042421;28;20416;-73
2022/07/21 02:45:23;;;;;;;36.20;21.98;;;;;;;18.69;100.00;101395.06;5044921;28;20099;-73
2022/07/21 02:47:56;;;;;;;35.83;22.73;;;;;;;18.63;100.00;101392.97;5046619;28;20040;-73
2022/07/21 02:50:24;;;;;;;44.60;23.15;;;;;;;18.71;100.00;101398.59;5043600;28;20079;-73
2022/07/21 02:52:49;;;;;;;36.92;23.58;;;;;;;18.77;100.00;101394.28;5017488;28;20037;-73
2022/07/21 02:55:16;;;;;;;31.65;21.75;;;;;;;18.74;100.00;101388.03;5035064;28;20404;-73
2022/07/21 02:57:41;;;;;;;37.13;23.13;;;;;;;18.62;100.00;101389.31;5046769;28;20504;-73
2022/07/21 03:00:09;;;;;;;34.53;22.35;;;;;;;18.72;100.00;101380.88;5019544;28;20056;-73
2022/07/21 03:02:35;;;;;;;35.28;22.73;;;;;;;18.75;100.00;101386.13;5049927;28;20040;-73
2022/07/21 03:05:01;;;;;;;36.13;22.63;;;;;;;18.68;100.00;101380.34;5003337;28;20029;-73
2022/07/21 03:07:26;;;;;;;32.30;23.00;;;;;;;18.65;100.00;101380.66;5034053;28;20040;-73
2022/07/21 03:09:52;;;;;;;36.47;24.40;;;;;;;18.66;100.00;101376.88;5020806;28;20083;-73
2022/07/21 03:12:17;;;;;;;35.05;23.73;;;;;;;18.60;100.00;101379.44;5032001;28;20057;-73
2022/07/21 03:14:43;;;;;;;38.47;23.80;;;;;;;18.72;100.00;101376.19;5033846;28;20091;-73
2022/07/21 03:17:09;;;;;;;39.75;24.52;;;;;;;18.77;100.00;101380.41;5050734;28;20064;-73
2022/07/21 03:19:34;;;;;;;39.13;23.92;;;;;;;18.72;100.00;101378.97;5050682;28;20085;-73
2022/07/21 03:22:00;;;;;;;38.80;24.52;;;;;;;18.71;100.00;101379.16;5037454;28;20399;-73
2022/07/21 03:24:25;;;;;;;41.03;26.27;;;;;;;18.70;100.00;101381.03;5041886;28;20583;-73
2022/07/21 03:26:51;;;;;;;38.40;25.08;;;;;;;18.72;100.00;101389.22;5040647;28;20056;-73
2022/07/21 03:29:16;;;;;;;41.05;24.38;;;;;;;18.81;100.00;101381.84;5035362;28;20040;-73
2022/07/21 03:31:42;;;;;;;36.60;24.38;;;;;;;18.84;100.00;101389.84;5042228;28;20508;-73
2022/07/21 03:34:07;;;;;;;38.97;25.08;;;;;;;18.78;100.00;101398.81;5034273;28;20041;-73
2022/07/21 03:36:33;;;;;;;43.83;25.45;;;;;;;18.80;100.00;101391.19;5004796;28;20038;-73
2022/07/21 03:38:59;;;;;;;44.28;26.67;;;;;;;18.76;100.00;101396.19;5045592;28;20485;-74
2022/07/21 03:41:24;;;;;;;40.28;25.58;;;;;;;18.69;100.00;101392.31;5036241;28;20481;-74
2022/07/21 03:43:50;;;;;;;39.65;25.70;;;;;;;18.66;100.00;101396.28;5033408;28;20067;-74
2022/07/21 03:46:15;;;;;;;44.45;26.77;;;;;;;18.61;100.00;101395.91;5039665;28;20497;-74
2022/07/21 03:48:41;;;;;;;47.67;27.52;;;;;;;18.60;100.00;101393.28;5033221;28;20051;-74
2022/07/21 03:51:06;;;;;;;47.85;26.80;;;;;;;18.65;100.00;101386.22;5035712;28;20048;-74
2022/07/21 03:53:32;;;;;;;44.38;26.95;;;;;;;18.75;100.00;101397.22;5029369;28;20034;-74
2022/07/21 03:55:57;;;;;;;44.83;27.88;;;;;;;18.66;100.00;101396.28;5039888;28;20513;-74
2022/07/21 03:58:23;;;;;;;47.35;28.52;;;;;;;18.72;100.00;101383.66;5035594;28;20045;-73
2022/07/21 04:00:48;;;;;;;45.75;27.13;;;;;;;18.63;100.00;101384.66;5032197;28;20045;-73
2022/07/21 04:03:14;;;;;;;41.05;26.95;;;;;;;18.60;100.00;101382.19;5032468;28;20041;-73
2022/07/21 04:05:41;;;;;;;45.35;29.00;;;;;;;18.64;100.00;101376.13;5028299;28;20042;-73
2022/07/21 04:08:08;;;;;;;45.67;28.05;;;;;;;18.68;100.00;101376.72;5043927;28;20045;-73
2022/07/21 04:10:37;;;;;;;42.00;28.00;;;;;;;18.53;100.00;101373.66;5048457;28;20430;-74
2022/07/21 04:13:05;;;;;;;49.60;27.48;;;;;;;18.57;100.00;101376.97;5034604;28;20025;-74
2022/07/21 04:15:31;;;;;;;46.45;28.77;;;;;;;18.73;100.00;101383.50;5038197;28;20374;-74
2022/07/21 04:17:56;;;;;;;44.70;28.55;;;;;;;18.78;100.00;101366.38;5044077;28;20056;-74
2022/07/21 04:20:22;;;;;;;42.35;28.58;;;;;;;18.72;100.00;101369.78;5027413;28;20414;-73
2022/07/21 04:22:49;;;;;;;47.97;28.35;;;;;;;18.82;100.00;101376.09;5047866;28;20261;-73
2022/07/21 04:25:17;;;;;;;43.42;29.05;;;;;;;18.66;100.00;101376.88;5020209;28;20029;-73
2022/07/21 04:27:43;;;;;;;44.13;29.08;;;;;;;18.72;100.00;101376.19;5044807;28;20037;-73
2022/07/21 04:30:12;;;;;;;44.22;27.95;;;;;;;18.78;100.00;101377.47;5038779;28;20045;-73
2022/07/21 04:32:38;;;;;;;46.65;29.65;;;;;;;18.73;100.00;101380.72;5034663;28;20209;-72
2022/07/21 04:35:05;;;;;;;46.83;29.42;;;;;;;18.83;100.00;101390.88;5037034;28;20057;-72
2022/07/21 04:37:31;;;;;;;45.20;29.27;;;;;;;18.86;100.00;101391.44;5045697;28;20553;-74
2022/07/21 04:39:56;;;;;;;49.33;29.77;;;;;;;18.80;100.00;101386.50;5036580;28;20044;-72
2022/07/21 04:42:22;;;;;;;46.30;29.88;;;;;;;18.81;100.00;101384.63;5041506;28;20108;-74
2022/07/21 04:44:48;;;;;;;54.25;29.55;;;;;;;18.82;100.00;101387.19;5032517;28;20397;-73
2022/07/21 04:47:13;;;;;;;44.88;29.83;;;;;;;18.90;100.00;101387.28;5032513;28;20040;-73
2022/07/21 04:49:39;;;;;;;50.05;28.33;;;;;;;18.79;100.00;101389.44;5046393;28;20465;-73
2022/07/21 04:52:04;;;;;;;45.90;28.88;;;;;;;18.82;100.00;101391.88;5036856;28;20529;-73
2022/07/21 04:54:30;;;;;;;48.83;29.05;;;;;;;18.61;100.00;101397.78;5026440;28;20041;-72
2022/07/21 04:56:56;;;;;;;46.47;27.83;;;;;;;18.72;100.00;101395.63;5035986;28;20029;-74
2022/07/21 04:59:21;;;;;;;41.67;27.33;;;;;;;18.80;100.00;101391.19;5051173;28;20069;-72
2022/07/21 05:01:47;;;;;;;44.70;26.33;;;;;;;18.76;100.00;101390.66;5044650;28;20037;-73
2022/07/21 05:04:12;;;;;;;40.35;25.42;;;;;;;18.73;100.00;101382.63;5048424;28;20036;-73
2022/07/21 05:06:38;;;;;;;43.53;26.08;;;;;;;18.68;100.00;101394.22;5046463;28;20167;-73
2022/07/21 05:09:03;;;;;;;38.15;24.38;;;;;;;18.66;100.00;101387.97;5036214;28;20037;-73
2022/07/21 05:11:29;;;;;;;41.20;25.48;;;;;;;18.64;100.00;101391.91;5001801;28;20037;-72
2022/07/21 05:13:55;;;;;;;39.42;25.50;;;;;;;18.65;100.00;101394.53;5048559;28;20083;-73
2022/07/21 05:16:21;;;;;;;36.70;25.15;;;;;;;18.71;100.00;101387.50;5026577;28;20475;-73
2022/07/21 05:18:47;;;;;;;44.28;25.08;;;;;;;18.65;100.00;101390.91;5037867;28;20120;-73
2022/07/21 05:21:12;;;;;;;39.30;23.98;;;;;;;18.70;100.00;101383.81;5038085;28;20167;-73
2022/07/21 05:23:38;;;;;;;42.20;23.95;;;;;;;18.73;100.00;101388.19;5035408;28;20117;-74
2022/07/21 05:26:04;;;;;;;39.80;24.17;;;;;;;18.78;100.00;101390.47;5025554;28;20029;-73
2022/07/21 05:28:29;;;;;;;41.10;23.67;;;;;;;18.82;100.00;101389.09;5043922;28;20120;-72
2022/07/21 05:30:55;;;;;;;37.40;23.30;;;;;;;18.72;100.00;101390.06;5035858;28;20038;-73
2022/07/21 05:33:21;;;;;;;38.83;23.27;;;;;;;18.78;100.00;101385.78;5042300;28;20128;-73
2022/07/21 05:35:46;;;;;;;34.25;21.65;;;;;;;18.78;100.00;101391.34;5042342;28;20037;-73
2022/07/21 05:38:12;;;;;;;38.28;21.92;;;;;;;18.69;100.00;101387.66;5035999;28;20060;-72
2022/07/21 05:40:38;;;;;;;41.55;22.88;;;;;;;18.69;100.00;101387.66;5035529;28;20048;-72
2022/07/21 05:43:03;;;;;;;37.33;22.02;;;;;;;18.80;100.00;101386.50;5046406;28;20037;-72
2022/07/21 05:45:29;;;;;;;37.65;20.95;;;;;;;18.70;100.00;101385.75;5034969;28;20045;-72
2022/07/21 05:47:54;;;;;;;37.40;22.55;;;;;;;18.83;100.00;101388.09;5033507;28;20382;-72
2022/07/21 05:50:20;;;;;;;33.53;20.73;;;;;;;18.77;100.00;101380.41;5048303;28;20040;-72
2022/07/21 05:52:45;;;;;;;33.40;21.25;;;;;;;18.78;100.00;101377.47;5046170;28;20124;-72
2022/07/21 05:55:11;;;;;;;39.83;21.15;;;;;;;19.05;100.00;101381.13;5053866;28;20025;-72
2022/07/21 05:57:37;;;;;;;33.42;20.20;;;;;;;19.20;100.00;101384.16;5053270;28;20147;-72
2022/07/21 06:00:04;;;;;;;31.60;19.90;;;;;;;19.33;100.00;101379.03;5040897;28;20033;-72
2022/07/21 06:02:31;;;;;;;39.90;20.80;;;;;;;19.24;100.00;101377.25;5035070;28;20116;-72
2022/07/21 06:04:56;;;;;;;32.25;20.88;;;;;;;19.19;100.00;101386.09;5026140;28;20045;-73
2022/07/21 06:07:22;;;;;;;32.95;20.90;;;;;;;19.41;100.00;101376.31;5000661;28;20041;-72
2022/07/21 06:09:47;;;;;;;36.10;19.95;;;;;;;19.60;100.00;101377.06;5040034;28;20116;-73
2022/07/21 06:12:13;;;;;;;35.03;19.63;;;;;;;19.61;100.00;101381.56;5034674;28;20543;-74
2022/07/21 06:14:38;;;;;;;31.20;19.80;;;;;;;19.77;100.00;101380.81;5046154;28;20107;-75
2022/07/21 06:17:04;;;;;;;35.42;19.38;;;;;;;19.74;100.00;101378.31;5037625;28;20056;-74
2022/07/21 06:19:31;;;;;;;34.65;19.20;;;;;;;19.87;100.00;101377.88;5016692;28;20037;-74
2022/07/21 06:21:56;;;;;;;32.60;19.70;;;;;;;20.02;100.00;101388.16;5033341;28;20030;-74
2022/07/21 06:24:22;;;;;;;31.60;20.90;;;;;;;20.07;100.00;101395.13;5027722;28;20044;-74
2022/07/21 06:26:48;;;;;;;36.47;20.95;;;;;;;19.86;100.00;101396.47;5035175;28;20034;-73
2022/07/21 06:29:13;;;;;;;40.08;20.10;;;;;;;19.77;100.00;101392.78;5033106;28;20501;-74
2022/07/21 06:31:39;;;;;;;34.75;20.35;;;;;;;19.89;100.00;101389.69;5016712;28;20110;-74
2022/07/21 06:34:04;;;;;;;32.15;19.95;;;;;;;19.74;100.00;101397.78;5039554;28;20524;-74
2022/07/21 06:36:30;;;;;;;35.95;21.88;;;;;;;19.58;100.00;101396.69;5045190;28;20041;-73
2022/07/21 06:38:55;;;;;;;37.20;21.38;;;;;;;19.42;100.00;101396.63;5015673;28;20436;-74
2022/07/21 06:41:22;;;;;;;38.38;21.48;;;;;;;19.39;100.00;101403.38;5050311;28;20090;-75
2022/07/21 06:43:47;;;;;;;35.40;21.05;;;;;;;19.30;100.00;101404.38;5038765;28;20037;-75
2022/07/21 06:46:13;;;;;;;42.15;21.55;;;;;;;19.51;100.00;101406.72;5042583;28;20480;-76
2022/07/21 06:48:38;;;;;;;40.05;22.08;;;;;;;19.38;100.00;101412.75;5032396;28;20583;-76
2022/07/21 06:51:04;;;;;;;39.75;21.77;;;;;;;19.33;100.00;101411.50;5016388;28;20048;-77
2022/07/21 06:53:29;;;;;;;43.65;23.10;;;;;;;19.36;100.00;101405.59;5034005;28;20435;-76
2022/07/21 06:55:55;;;;;;;36.80;21.15;;;;;;;19.42;100.00;101407.72;5047882;28;20128;-76
2022/07/21 06:58:22;;;;;;;37.92;22.50;;;;;;;19.43;100.00;101409.44;5052665;28;20033;-76
2022/07/21 07:00:49;;;;;;;44.30;22.10;;;;;;;19.54;100.00;101403.59;5039009;28;20443;-76
2022/07/21 07:03:16;;;;;;;54.25;22.27;;;;;;;19.88;100.00;101410.19;5032137;28;20385;-76
2022/07/21 07:05:43;;;;;;;36.53;23.25;;;;;;;19.82;100.00;101414.50;5036895;28;20107;-76
2022/07/21 07:08:09;;;;;;;40.10;22.48;;;;;;;19.95;100.00;101420.44;5032634;28;20029;-76
2022/07/21 07:10:35;;;;;;;37.60;21.63;;;;;;;19.95;100.00;101414.91;5032359;28;20165;-76
2022/07/21 07:13:01;;;;;;;36.88;22.55;;;;;;;19.94;100.00;101415.06;5043960;28;20480;-77
2022/07/21 07:15:28;;;;;;;41.47;23.38;;;;;;;19.95;100.00;101417.66;5042148;28;20052;-76
2022/07/21 07:17:54;;;;;;;38.95;22.70;;;;;;;19.88;100.00;101416.63;5033499;28;20037;-77
2022/07/21 07:20:20;;;;;;;40.20;24.10;;;;;;;19.80;100.00;101434.13;5015889;28;20049;-76
2022/07/21 07:22:46;;;;;;;42.15;23.63;;;;;;;19.52;100.00;101425.13;5031712;28;20056;-76
2022/07/21 07:25:12;;;;;;;41.13;24.10;;;;;;;19.69;100.00;101417.72;5032323;28;20036;-76
2022/07/21 07:27:37;;;;;;;47.45;24.67;;;;;;;19.81;100.00;101421.97;5047124;28;20094;-76
2022/07/21 07:30:03;;;;;;;49.15;26.35;;;;;;;19.75;100.00;101414.31;5042168;28;20455;-76
2022/07/21 07:32:29;;;;;;;48.30;26.25;;;;;;;19.77;100.00;101408.59;5033288;28;20444;-77
2022/07/21 07:34:54;;;;;;;47.28;26.95;;;;;;;19.83;100.00;101411.56;5019384;28;20037;-76
2022/07/21 07:37:20;;;;;;;47.55;25.13;;;;;;;19.58;100.00;101406.94;5033216;28;20116;-76
2022/07/21 07:39:45;;;;;;;41.05;24.63;;;;;;;19.73;100.00;101415.50;5032931;28;20081;-76
2022/07/21 07:42:11;;;;;;;46.20;24.17;;;;;;;19.64;100.00;101409.91;5031972;28;20032;-76
2022/07/21 07:44:36;;;;;;;52.38;25.20;;;;;;;19.62;100.00;101411.09;5033555;28;20504;-76
2022/07/21 07:47:02;;;;;;;50.50;28.42;;;;;;;19.51;100.00;101415.03;5031557;28;20041;-76
2022/07/21 07:49:29;;;;;;;50.70;27.85;;;;;;;19.58;100.00;101407.81;5033073;28;20129;-76
2022/07/21 07:51:55;;;;;;;53.63;27.83;;;;;;;19.73;100.00;101407.16;5045439;28;20033;-76
2022/07/21 07:54:21;;;;;;;44.47;26.60;;;;;;;20.07;100.00;101400.69;5053050;28;20048;-76
2022/07/21 07:56:46;;;;;;;44.25;25.17;;;;;;;20.09;100.00;101405.03;5023441;28;20041;-76
2022/07/21 07:59:12;;;;;;;44.97;25.80;;;;;;;20.27;100.00;101401.25;5032624;28;20504;-76
2022/07/21 08:01:37;;;;;;;39.33;24.55;;;;;;;20.16;100.00;101417.19;5031882;28;20115;-76
2022/07/21 08:04:03;;;;;;;46.60;25.55;;;;;;;20.06;100.00;101419.28;5015291;28;20084;-76
2022/07/21 08:06:28;;;;;;;45.63;25.42;;;;;;;20.05;100.00;101422.22;5031172;28;20056;-76
2022/07/21 08:08:54;;;;;;;49.60;25.63;;;;;;;19.76;100.00;101417.97;5030272;28;20045;-76
2022/07/21 08:11:20;;;;;;;45.55;25.05;;;;;;;19.91;100.00;101424.63;5051534;28;20032;-76
2022/07/21 08:13:45;;;;;;;42.00;23.92;;;;;;;19.85;100.00;101430.00;5051598;28;20101;-76
2022/07/21 08:16:12;;;;;;;49.25;24.40;;;;;;;20.00;100.00;101423.63;5028260;28;20033;-76
2022/07/21 08:18:38;;;;;;;41.13;23.52;;;;;;;19.96;100.00;101430.53;5043931;28;20127;-76
2022/07/21 08:21:03;;;;;;;46.63;24.35;;;;;;;20.00;100.00;101429.19;5034182;28;20515;-76
2022/07/21 08:23:29;;;;;;;40.92;23.02;;;;;;;19.94;100.00;101431.75;5032697;28;20100;-76
2022/07/21 08:25:54;;;;;;;45.13;23.05;;;;;;;20.05;100.00;101431.44;5031014;28;20507;-76
2022/07/21 08:28:21;;;;;;;38.45;21.85;;;;;;;20.19;100.00;101433.56;5033913;28;20084;-76
2022/07/21 08:30:46;;;;;;;43.97;24.05;;;;;;;19.91;100.00;101435.75;5032651;28;20033;-76
2022/07/21 08:33:12;;;;;;;39.40;22.15;;;;;;;19.69;100.00;101426.06;5031259;28;20052;-76
2022/07/21 08:35:38;;;;;;;35.83;23.00;;;;;;;19.64;100.00;101423.81;5014982;28;20116;-76
2022/07/21 08:38:06;;;;;;;42.97;25.38;;;;;;;19.55;100.00;101441.47;5031188;28;20037;-76
2022/07/21 08:40:34;;;;;;;48.47;26.10;;;;;;;19.28;100.00;101437.84;5034299;28;20489;-76
2022/07/21 08:43:01;;;;;;;51.17;27.13;;;;;;;19.28;100.00;101442.53;5030471;28;20060;-76
2022/07/21 08:45:27;;;;;;;54.88;28.75;;;;;;;19.41;100.00;101437.41;5034237;28;20061;-76
2022/07/21 08:47:55;;;;;;;61.67;30.17;;;;;;;19.46;100.00;101448.00;5044927;28;20103;-76
2022/07/21 08:50:26;;;;;;;52.72;27.85;;;;;;;19.46;100.00;101439.66;5051093;28;20473;-76
2022/07/21 08:52:52;;;;;;;42.60;25.70;;;;;;;19.42;100.00;101435.50;5052431;28;20087;-76
2022/07/21 08:55:18;;;;;;;40.75;25.15;;;;;;;19.34;100.00;101441.88;5050157;28;20472;-76
2022/07/21 08:57:43;;;;;;;43.85;25.00;;;;;;;19.31;100.00;101428.31;5030924;28;20037;-77
2022/07/21 09:00:10;;;;;;;49.13;24.98;;;;;;;19.27;100.00;101426.91;5031024;28;20056;-77
2022/07/21 09:02:37;;;;;;;36.10;22.85;;;;;;;19.17;100.00;101431.69;5032626;28;20048;-77
2022/07/21 09:05:08;;;;;;;42.92;24.20;;;;;;;19.15;100.00;101426.34;5040606;28;20041;-77
2022/07/21 09:08:06;;;;;;;39.90;25.27;;;;;;;19.38;100.00;101421.09;5030118;28;20038;-77
2022/07/21 09:10:32;;;;;;;38.08;23.33;;;;;;;19.17;100.00;101424.25;5031177;28;20059;-77
2022/07/21 09:13:04;;;;;;;43.35;23.55;;;;;;;19.24;100.00;101428.09;5030093;28;20033;-77
2022/07/21 09:15:33;;;;;;;37.50;22.45;;;;;;;19.09;100.00;101429.75;5032478;28;20039;-76
2022/07/21 09:18:18;;;;;;;34.35;21.27;;;;;;;19.09;100.00;101421.44;5034622;28;20497;-77
2022/07/21 09:20:48;;;;;;;33.50;21.25;;;;;;;19.04;100.00;101426.59;5036348;28;20346;-76
2022/07/21 09:23:17;;;;;;;32.70;22.15;;;;;;;19.14;100.00;101427.34;5038686;28;20044;-76
2022/07/21 09:25:48;;;;;;;34.92;20.83;;;;;;;19.09;100.00;101427.84;5035953;28;20065;-76
2022/07/21 09:28:24;;;;;;;30.75;18.45;;;;;;;19.03;100.00;101430.41;5037444;28;20033;-76
2022/07/21 09:31:01;;;;;;;29.85;17.38;;;;;;;18.95;100.00;101428.44;5035637;28;20041;-75
2022/07/21 09:33:27;;;;;;;26.08;16.35;;;;;;;18.96;100.00;101441.28;5034308;28;20386;-76
2022/07/21 09:36:08;;;;;;;22.65;13.90;;;;;;;18.95;100.00;101441.44;5035712;28;20034;-75
2022/07/21 09:38:41;;;;;;;25.38;14.75;;;;;;;18.90;100.00;101451.09;5038288;28;20044;-76
2022/07/21 09:41:12;;;;;;;21.55;12.45;;;;;;;18.77;100.00;101453.41;5035350;28;20124;-75
2022/07/21 09:43:48;;;;;;;28.35;13.10;;;;;;;18.81;100.00;101448.44;5034640;28;20038;-75
2022/07/21 09:46:21;;;;;;;28.02;12.73;;;;;;;18.73;100.00;101450.09;5035535;28;20557;-75
2022/07/21 09:48:51;;;;;;;27.58;13.50;;;;;;;18.92;100.00;101451.84;5035552;28;20163;-75
2022/07/21 09:51:25;;;;;;;20.83;13.20;;;;;;;18.92;100.00;101457.41;5037300;28;20037;-76
2022/07/21 09:54:10;;;;;;;20.55;12.20;;;;;;;18.88;100.00;101455.97;5041107;28;20477;-75
2022/07/21 09:56:37;;;;;;;23.35;12.35;;;;;;;18.90;100.00;101459.44;5017306;28;20037;-75
2022/07/21 09:59:05;;;;;;;22.02;13.43;;;;;;;18.76;100.00;101460.00;5039335;28;20506;-75
2022/07/21 10:01:31;;;;;;;23.40;12.00;;;;;;;18.83;100.00;101458.34;5049922;28;20029;-75
2022/07/21 10:03:58;;;;;;;27.20;15.02;;;;;;;18.90;100.00;101464.97;5016658;28;20072;-75
2022/07/21 10:06:27;;;;;;;25.35;15.23;;;;;;;18.98;100.00;101460.56;5050398;28;20034;-75
2022/07/21 10:08:54;;;;;;;23.92;15.77;;;;;;;18.91;100.00;101463.97;5047778;28;20032;-75
2022/07/21 10:11:21;;;;;;;25.50;15.07;;;;;;;18.96;100.00;101457.94;5047418;28;20396;-75
2022/07/21 10:13:46;;;;;;;24.20;16.00;;;;;;;18.92;100.00;101470.38;5043421;28;20464;-75
2022/07/21 10:16:12;;;;;;;30.98;17.17;;;;;;;19.06;100.00;101464.25;5040269;28;20060;-75
2022/07/21 10:18:46;;;;;;;25.83;16.98;;;;;;;18.97;100.00;101465.25;5038595;28;20045;-75
2022/07/21 10:21:29;;;;;;;24.13;15.18;;;;;;;18.90;100.00;101458.56;5039495;28;20021;-75
2022/07/21 10:23:55;;;;;;;23.42;15.10;;;;;;;18.97;100.00;101459.69;5037033;28;20030;-75
2022/07/21 10:26:21;;;;;;;27.30;16.25;;;;;;;18.95;100.00;101469.19;5036149;28;20396;-74
2022/07/21 10:28:47;;;;;;;22.70;14.60;;;;;;;18.93;100.00;101474.91;5041875;28;20037;-75
2022/07/21 10:31:14;;;;;;;21.27;13.43;;;;;;;18.81;100.00;101465.94;5032434;28;20041;-75
2022/07/21 10:33:46;;;;;;;22.20;14.43;;;;;;;18.82;100.00;101478.75;5035224;28;20034;-75
2022/07/21 10:36:35;;;;;;;20.27;13.55;;;;;;;18.73;100.00;101480.59;5032996;28;20033;-74
2022/07/21 10:39:07;;;;;;;22.98;12.55;;;;;;;18.78;100.00;101491.22;5035689;28;20516;-75
2022/07/21 10:41:41;;;;;;;26.38;14.35;;;;;;;19.08;100.00;101486.28;5048273;28;20021;-74
2022/07/21 10:44:30;;;;;;;19.73;12.20;;;;;;;18.90;100.00;101492.75;5033505;28;20028;-75
2022/07/21 10:47:06;;;;;;;19.50;11.98;;;;;;;18.91;100.00;101490.84;5032314;28;20033;-77
2022/07/21 10:49:54;;;;;;;22.05;12.82;;;;;;;18.84;100.00;101501.72;5045619;28;20529;-76
2022/07/21 10:52:35;;;;;;;20.80;12.13;;;;;;;18.94;100.00;101500.75;5053980;28;20045;-77
2022/07/21 10:55:09;;;;;;;15.98;10.88;;;;;;;18.92;100.00;101501.78;5034994;28;20037;-77
2022/07/21 10:57:39;;;;;;;16.35;10.40;;;;;;;18.90;100.00;101500.19;5049170;28;20037;-76
2022/07/21 11:00:22;;;;;;;16.42;9.55;;;;;;;18.79;100.00;101501.31;5050405;28;20033;-77
2022/07/21 11:02:50;;;;;;;9.35;7.03;;;;;;;18.59;100.00;101495.03;5053729;28;20495;-77
2022/07/21 11:05:16;;;;;;;10.75;7.50;;;;;;;18.53;100.00;101504.88;5046075;28;20087;-77